sensor_id;sensor_type;location;lat;lon;timestamp;P1;durP1;ratioP1;P2;durP2;ratioP2
10641;SDS011;5369;49.586;8.646;2023-04-07T00:00:45;11.50;;;9.00;;
10641;SDS011;5369;49.586;8.646;2023-04-07T00:03:15;10.77;;;8.40;;
10641;SDS011;5369;49.586;8.646;2023-04-07T00:05:41;14.73;;;9.07;;
10641;SDS011;5369;49.586;8.646;2023-04-07T00:08:07;10.57;;;8.80;;
10641;SDS011;5369;49.586;8.646;2023-04-07T00:10:33;17.57;;;11.03;;
10641;SDS011;5369;49.586;8.646;2023-04-07T00:13:00;12.67;;;9.87;;
10641;SDS011;5369;49.586;8.646;2023-04-07T00:15:26;11.97;;;9.10;;
10641;SDS011;5369;49.586;8.646;2023-04-07T00:17:52;19.23;;;12.23;;
10641;SDS011;5369;49.586;8.646;2023-04-07T00:20:18;13.80;;;10.43;;
10641;SDS011;5369;49.586;8.646;2023-04-07T00:22:44;13.30;;;9.07;;
10641;SDS011;5369;49.586;8.646;2023-04-07T00:25:14;15.43;;;10.50;;
10641;SDS011;5369;49.586;8.646;2023-04-07T00:27:40;14.33;;;9.90;;
10641;SDS011;5369;49.586;8.646;2023-04-07T00:30:06;12.47;;;9.90;;
10641;SDS011;5369;49.586;8.646;2023-04-07T00:32:33;13.13;;;9.50;;
10641;SDS011;5369;49.586;8.646;2023-04-07T00:34:59;11.70;;;9.30;;
10641;SDS011;5369;49.586;8.646;2023-04-07T00:37:25;13.80;;;10.43;;
10641;SDS011;5369;49.586;8.646;2023-04-07T00:39:51;13.23;;;10.03;;
10641;SDS011;5369;49.586;8.646;2023-04-07T00:42:18;14.10;;;9.70;;
10641;SDS011;5369;49.586;8.646;2023-04-07T00:44:44;14.33;;;9.83;;
10641;SDS011;5369;49.586;8.646;2023-04-07T00:47:10;11.77;;;8.93;;
10641;SDS011;5369;49.586;8.646;2023-04-07T00:49:37;17.93;;;11.13;;
10641;SDS011;5369;49.586;8.646;2023-04-07T00:52:03;20.47;;;12.17;;
10641;SDS011;5369;49.586;8.646;2023-04-07T00:54:30;17.63;;;10.97;;
10641;SDS011;5369;49.586;8.646;2023-04-07T00:56:57;11.87;;;8.93;;
10641;SDS011;5369;49.586;8.646;2023-04-07T00:59:23;12.10;;;9.27;;
10641;SDS011;5369;49.586;8.646;2023-04-07T01:04:21;12.43;;;8.53;;
10641;SDS011;5369;49.586;8.646;2023-04-07T01:06:56;10.73;;;8.53;;
10641;SDS011;5369;49.586;8.646;2023-04-07T01:09:40;15.30;;;10.17;;
10641;SDS011;5369;49.586;8.646;2023-04-07T01:14:59;14.00;;;9.40;;
10641;SDS011;5369;49.586;8.646;2023-04-07T01:17:37;11.50;;;8.60;;
10641;SDS011;5369;49.586;8.646;2023-04-07T01:20:05;12.57;;;9.60;;
10641;SDS011;5369;49.586;8.646;2023-04-07T01:22:40;13.33;;;9.20;;
10641;SDS011;5369;49.586;8.646;2023-04-07T01:27:38;12.77;;;9.80;;
10641;SDS011;5369;49.586;8.646;2023-04-07T01:30:09;13.47;;;9.63;;
10641;SDS011;5369;49.586;8.646;2023-04-07T01:32:36;12.10;;;9.87;;
10641;SDS011;5369;49.586;8.646;2023-04-07T01:35:04;11.20;;;8.67;;
10641;SDS011;5369;49.586;8.646;2023-04-07T01:37:34;13.83;;;9.83;;
10641;SDS011;5369;49.586;8.646;2023-04-07T01:40:02;12.57;;;9.57;;
10641;SDS011;5369;49.586;8.646;2023-04-07T01:42:28;12.17;;;9.60;;
10641;SDS011;5369;49.586;8.646;2023-04-07T01:44:55;15.20;;;10.20;;
10641;SDS011;5369;49.586;8.646;2023-04-07T01:47:22;14.93;;;10.40;;
10641;SDS011;5369;49.586;8.646;2023-04-07T01:49:51;12.03;;;9.37;;
10641;SDS011;5369;49.586;8.646;2023-04-07T01:52:18;11.87;;;8.60;;
10641;SDS011;5369;49.586;8.646;2023-04-07T01:54:46;9.57;;;7.87;;
10641;SDS011;5369;49.586;8.646;2023-04-07T01:57:12;10.17;;;8.47;;
10641;SDS011;5369;49.586;8.646;2023-04-07T01:59:43;9.83;;;7.20;;
10641;SDS011;5369;49.586;8.646;2023-04-07T02:02:09;10.70;;;8.30;;
10641;SDS011;5369;49.586;8.646;2023-04-07T02:04:39;11.87;;;9.00;;
10641;SDS011;5369;49.586;8.646;2023-04-07T02:07:14;9.57;;;8.13;;
10641;SDS011;5369;49.586;8.646;2023-04-07T02:09:47;12.87;;;8.83;;
10641;SDS011;5369;49.586;8.646;2023-04-07T02:12:15;12.23;;;9.00;;
10641;SDS011;5369;49.586;8.646;2023-04-07T02:14:53;13.67;;;9.40;;
10641;SDS011;5369;49.586;8.646;2023-04-07T02:17:20;20.20;;;10.90;;
10641;SDS011;5369;49.586;8.646;2023-04-07T02:19:46;15.00;;;9.90;;
10641;SDS011;5369;49.586;8.646;2023-04-07T02:22:14;11.57;;;8.83;;
10641;SDS011;5369;49.586;8.646;2023-04-07T02:24:41;14.13;;;9.13;;
10641;SDS011;5369;49.586;8.646;2023-04-07T02:27:07;10.97;;;8.10;;
10641;SDS011;5369;49.586;8.646;2023-04-07T02:29:33;10.07;;;8.13;;
10641;SDS011;5369;49.586;8.646;2023-04-07T02:31:59;11.73;;;8.57;;
10641;SDS011;5369;49.586;8.646;2023-04-07T02:34:28;11.60;;;8.00;;
10641;SDS011;5369;49.586;8.646;2023-04-07T02:36:54;11.53;;;8.97;;
10641;SDS011;5369;49.586;8.646;2023-04-07T02:39:20;12.80;;;8.27;;
10641;SDS011;5369;49.586;8.646;2023-04-07T02:41:46;13.43;;;9.50;;
10641;SDS011;5369;49.586;8.646;2023-04-07T02:44:12;10.17;;;8.13;;
10641;SDS011;5369;49.586;8.646;2023-04-07T02:46:39;11.33;;;8.03;;
10641;SDS011;5369;49.586;8.646;2023-04-07T02:49:05;23.90;;;11.87;;
10641;SDS011;5369;49.586;8.646;2023-04-07T02:51:31;19.40;;;11.30;;
10641;SDS011;5369;49.586;8.646;2023-04-07T02:53:57;18.53;;;10.40;;
10641;SDS011;5369;49.586;8.646;2023-04-07T02:56:29;14.77;;;9.50;;
10641;SDS011;5369;49.586;8.646;2023-04-07T02:58:55;15.80;;;9.70;;
10641;SDS011;5369;49.586;8.646;2023-04-07T03:01:21;11.70;;;8.63;;
10641;SDS011;5369;49.586;8.646;2023-04-07T03:03:48;12.00;;;8.73;;
10641;SDS011;5369;49.586;8.646;2023-04-07T03:06:18;13.20;;;9.40;;
10641;SDS011;5369;49.586;8.646;2023-04-07T03:08:58;11.17;;;8.50;;
10641;SDS011;5369;49.586;8.646;2023-04-07T03:11:25;15.90;;;10.50;;
10641;SDS011;5369;49.586;8.646;2023-04-07T03:13:51;33.40;;;15.57;;
10641;SDS011;5369;49.586;8.646;2023-04-07T03:16:17;18.10;;;11.53;;
10641;SDS011;5369;49.586;8.646;2023-04-07T03:19:06;11.40;;;8.80;;
10641;SDS011;5369;49.586;8.646;2023-04-07T03:21:36;22.80;;;11.60;;
10641;SDS011;5369;49.586;8.646;2023-04-07T03:24:04;13.57;;;9.03;;
10641;SDS011;5369;49.586;8.646;2023-04-07T03:26:30;10.80;;;8.20;;
10641;SDS011;5369;49.586;8.646;2023-04-07T03:28:57;9.30;;;7.90;;
10641;SDS011;5369;49.586;8.646;2023-04-07T03:31:23;9.10;;;7.50;;
10641;SDS011;5369;49.586;8.646;2023-04-07T03:33:51;10.80;;;8.40;;
10641;SDS011;5369;49.586;8.646;2023-04-07T03:36:18;27.63;;;14.50;;
10641;SDS011;5369;49.586;8.646;2023-04-07T03:38:46;14.63;;;10.23;;
10641;SDS011;5369;49.586;8.646;2023-04-07T03:41:13;15.37;;;9.67;;
10641;SDS011;5369;49.586;8.646;2023-04-07T03:43:39;21.70;;;12.37;;
10641;SDS011;5369;49.586;8.646;2023-04-07T03:46:06;21.43;;;12.30;;
10641;SDS011;5369;49.586;8.646;2023-04-07T03:48:33;20.80;;;11.17;;
10641;SDS011;5369;49.586;8.646;2023-04-07T03:51:04;15.40;;;10.17;;
10641;SDS011;5369;49.586;8.646;2023-04-07T03:53:30;15.03;;;10.03;;
10641;SDS011;5369;49.586;8.646;2023-04-07T03:55:59;16.17;;;10.53;;
10641;SDS011;5369;49.586;8.646;2023-04-07T03:58:40;19.30;;;10.53;;
10641;SDS011;5369;49.586;8.646;2023-04-07T04:01:10;16.07;;;9.53;;
10641;SDS011;5369;49.586;8.646;2023-04-07T04:03:37;13.80;;;9.37;;
10641;SDS011;5369;49.586;8.646;2023-04-07T04:06:16;19.70;;;12.13;;
10641;SDS011;5369;49.586;8.646;2023-04-07T04:08:44;14.20;;;10.37;;
10641;SDS011;5369;49.586;8.646;2023-04-07T04:11:11;21.93;;;13.10;;
10641;SDS011;5369;49.586;8.646;2023-04-07T04:13:44;38.87;;;17.63;;
10641;SDS011;5369;49.586;8.646;2023-04-07T04:16:11;25.10;;;13.80;;
10641;SDS011;5369;49.586;8.646;2023-04-07T04:18:38;25.80;;;14.77;;
10641;SDS011;5369;49.586;8.646;2023-04-07T04:21:06;27.03;;;14.27;;
10641;SDS011;5369;49.586;8.646;2023-04-07T04:23:33;21.83;;;13.00;;
10641;SDS011;5369;49.586;8.646;2023-04-07T04:26:01;18.27;;;11.53;;
10641;SDS011;5369;49.586;8.646;2023-04-07T04:28:29;19.20;;;12.27;;
10641;SDS011;5369;49.586;8.646;2023-04-07T04:30:56;21.53;;;11.93;;
10641;SDS011;5369;49.586;8.646;2023-04-07T04:33:22;15.80;;;10.53;;
10641;SDS011;5369;49.586;8.646;2023-04-07T04:35:54;12.67;;;9.57;;
10641;SDS011;5369;49.586;8.646;2023-04-07T04:38:20;16.90;;;10.70;;
10641;SDS011;5369;49.586;8.646;2023-04-07T04:40:53;17.47;;;11.00;;
10641;SDS011;5369;49.586;8.646;2023-04-07T04:43:24;30.83;;;16.03;;
10641;SDS011;5369;49.586;8.646;2023-04-07T04:45:50;28.43;;;14.27;;
10641;SDS011;5369;49.586;8.646;2023-04-07T04:48:19;20.77;;;12.80;;
10641;SDS011;5369;49.586;8.646;2023-04-07T04:50:46;19.37;;;11.60;;
10641;SDS011;5369;49.586;8.646;2023-04-07T04:53:13;36.50;;;17.30;;
10641;SDS011;5369;49.586;8.646;2023-04-07T04:55:55;19.07;;;12.70;;
10641;SDS011;5369;49.586;8.646;2023-04-07T04:58:38;15.43;;;10.27;;
10641;SDS011;5369;49.586;8.646;2023-04-07T05:01:07;20.33;;;11.70;;
10641;SDS011;5369;49.586;8.646;2023-04-07T05:03:40;17.83;;;11.20;;
10641;SDS011;5369;49.586;8.646;2023-04-07T05:06:14;22.13;;;12.43;;
10641;SDS011;5369;49.586;8.646;2023-04-07T05:08:43;19.07;;;11.93;;
10641;SDS011;5369;49.586;8.646;2023-04-07T05:11:10;18.83;;;12.00;;
10641;SDS011;5369;49.586;8.646;2023-04-07T05:13:37;18.20;;;11.57;;
10641;SDS011;5369;49.586;8.646;2023-04-07T05:16:03;18.20;;;11.53;;
10641;SDS011;5369;49.586;8.646;2023-04-07T05:18:31;15.13;;;10.10;;
10641;SDS011;5369;49.586;8.646;2023-04-07T05:20:58;21.73;;;12.70;;
10641;SDS011;5369;49.586;8.646;2023-04-07T05:23:26;19.87;;;11.30;;
10641;SDS011;5369;49.586;8.646;2023-04-07T05:25:52;15.53;;;10.03;;
10641;SDS011;5369;49.586;8.646;2023-04-07T05:28:18;11.93;;;8.93;;
10641;SDS011;5369;49.586;8.646;2023-04-07T05:30:45;10.60;;;8.50;;
10641;SDS011;5369;49.586;8.646;2023-04-07T05:33:12;8.73;;;7.53;;
10641;SDS011;5369;49.586;8.646;2023-04-07T05:35:45;11.63;;;8.40;;
10641;SDS011;5369;49.586;8.646;2023-04-07T05:38:12;9.83;;;8.33;;
10641;SDS011;5369;49.586;8.646;2023-04-07T05:40:40;10.70;;;8.73;;
10641;SDS011;5369;49.586;8.646;2023-04-07T05:43:09;10.57;;;8.07;;
10641;SDS011;5369;49.586;8.646;2023-04-07T05:45:36;11.10;;;8.70;;
10641;SDS011;5369;49.586;8.646;2023-04-07T05:48:02;9.67;;;8.67;;
10641;SDS011;5369;49.586;8.646;2023-04-07T05:50:37;23.10;;;13.67;;
10641;SDS011;5369;49.586;8.646;2023-04-07T05:53:08;25.33;;;14.90;;
10641;SDS011;5369;49.586;8.646;2023-04-07T05:55:34;26.43;;;14.77;;
10641;SDS011;5369;49.586;8.646;2023-04-07T05:58:01;16.97;;;11.83;;
10641;SDS011;5369;49.586;8.646;2023-04-07T06:00:29;13.83;;;9.80;;
10641;SDS011;5369;49.586;8.646;2023-04-07T06:03:07;12.27;;;9.90;;
10641;SDS011;5369;49.586;8.646;2023-04-07T06:05:45;13.73;;;10.00;;
10641;SDS011;5369;49.586;8.646;2023-04-07T06:08:12;13.33;;;9.57;;
10641;SDS011;5369;49.586;8.646;2023-04-07T06:10:38;13.83;;;10.13;;
10641;SDS011;5369;49.586;8.646;2023-04-07T06:13:06;15.57;;;10.47;;
10641;SDS011;5369;49.586;8.646;2023-04-07T06:15:32;12.87;;;10.30;;
10641;SDS011;5369;49.586;8.646;2023-04-07T06:17:58;12.70;;;10.03;;
10641;SDS011;5369;49.586;8.646;2023-04-07T06:20:24;11.90;;;8.93;;
10641;SDS011;5369;49.586;8.646;2023-04-07T06:22:52;11.83;;;8.33;;
10641;SDS011;5369;49.586;8.646;2023-04-07T06:25:18;10.30;;;8.33;;
10641;SDS011;5369;49.586;8.646;2023-04-07T06:27:45;10.57;;;7.77;;
10641;SDS011;5369;49.586;8.646;2023-04-07T06:30:11;10.77;;;7.93;;
10641;SDS011;5369;49.586;8.646;2023-04-07T06:32:38;9.30;;;7.90;;
10641;SDS011;5369;49.586;8.646;2023-04-07T06:35:04;10.03;;;7.60;;
10641;SDS011;5369;49.586;8.646;2023-04-07T06:37:30;8.00;;;6.60;;
10641;SDS011;5369;49.586;8.646;2023-04-07T06:39:57;9.53;;;7.43;;
10641;SDS011;5369;49.586;8.646;2023-04-07T06:42:26;7.97;;;6.97;;
10641;SDS011;5369;49.586;8.646;2023-04-07T06:45:04;8.63;;;6.90;;
10641;SDS011;5369;49.586;8.646;2023-04-07T06:47:30;8.47;;;7.47;;
10641;SDS011;5369;49.586;8.646;2023-04-07T06:49:57;8.43;;;7.07;;
10641;SDS011;5369;49.586;8.646;2023-04-07T06:52:23;10.23;;;8.20;;
10641;SDS011;5369;49.586;8.646;2023-04-07T06:54:49;9.40;;;7.70;;
10641;SDS011;5369;49.586;8.646;2023-04-07T06:57:15;8.70;;;7.17;;
10641;SDS011;5369;49.586;8.646;2023-04-07T06:59:41;11.57;;;8.50;;
10641;SDS011;5369;49.586;8.646;2023-04-07T07:02:07;11.90;;;8.30;;
10641;SDS011;5369;49.586;8.646;2023-04-07T07:04:34;9.73;;;8.07;;
10641;SDS011;5369;49.586;8.646;2023-04-07T07:07:00;10.10;;;8.57;;
10641;SDS011;5369;49.586;8.646;2023-04-07T07:09:27;10.27;;;7.87;;
10641;SDS011;5369;49.586;8.646;2023-04-07T07:11:53;9.10;;;7.47;;
10641;SDS011;5369;49.586;8.646;2023-04-07T07:14:20;10.30;;;8.40;;
10641;SDS011;5369;49.586;8.646;2023-04-07T07:16:46;9.20;;;8.20;;
10641;SDS011;5369;49.586;8.646;2023-04-07T07:19:12;8.80;;;7.90;;
10641;SDS011;5369;49.586;8.646;2023-04-07T07:21:43;10.63;;;9.30;;
10641;SDS011;5369;49.586;8.646;2023-04-07T07:24:09;9.40;;;8.47;;
10641;SDS011;5369;49.586;8.646;2023-04-07T07:26:35;10.17;;;8.47;;
10641;SDS011;5369;49.586;8.646;2023-04-07T07:29:01;9.67;;;8.67;;
10641;SDS011;5369;49.586;8.646;2023-04-07T07:31:27;10.67;;;8.60;;
10641;SDS011;5369;49.586;8.646;2023-04-07T07:33:55;10.77;;;8.67;;
10641;SDS011;5369;49.586;8.646;2023-04-07T07:36:21;9.73;;;7.77;;
10641;SDS011;5369;49.586;8.646;2023-04-07T07:38:48;9.37;;;8.17;;
10641;SDS011;5369;49.586;8.646;2023-04-07T07:41:15;9.60;;;8.10;;
10641;SDS011;5369;49.586;8.646;2023-04-07T07:43:41;11.83;;;9.27;;
10641;SDS011;5369;49.586;8.646;2023-04-07T07:46:07;10.93;;;7.93;;
10641;SDS011;5369;49.586;8.646;2023-04-07T07:48:34;10.40;;;8.60;;
10641;SDS011;5369;49.586;8.646;2023-04-07T07:51:00;9.87;;;8.00;;
10641;SDS011;5369;49.586;8.646;2023-04-07T07:53:26;10.70;;;8.10;;
10641;SDS011;5369;49.586;8.646;2023-04-07T07:55:52;9.93;;;8.53;;
10641;SDS011;5369;49.586;8.646;2023-04-07T07:58:20;10.90;;;8.20;;
10641;SDS011;5369;49.586;8.646;2023-04-07T08:00:46;10.23;;;8.07;;
10641;SDS011;5369;49.586;8.646;2023-04-07T08:03:12;10.97;;;8.63;;
10641;SDS011;5369;49.586;8.646;2023-04-07T08:05:38;10.90;;;8.17;;
10641;SDS011;5369;49.586;8.646;2023-04-07T08:08:05;10.93;;;8.07;;
10641;SDS011;5369;49.586;8.646;2023-04-07T08:10:31;9.53;;;7.80;;
10641;SDS011;5369;49.586;8.646;2023-04-07T08:12:58;11.43;;;8.60;;
10641;SDS011;5369;49.586;8.646;2023-04-07T08:15:24;10.67;;;8.07;;
10641;SDS011;5369;49.586;8.646;2023-04-07T08:17:50;10.47;;;8.33;;
10641;SDS011;5369;49.586;8.646;2023-04-07T08:20:16;10.13;;;9.03;;
10641;SDS011;5369;49.586;8.646;2023-04-07T08:22:43;12.70;;;9.30;;
10641;SDS011;5369;49.586;8.646;2023-04-07T08:25:09;10.47;;;8.90;;
10641;SDS011;5369;49.586;8.646;2023-04-07T08:27:35;11.10;;;8.70;;
10641;SDS011;5369;49.586;8.646;2023-04-07T08:30:02;12.27;;;8.43;;
10641;SDS011;5369;49.586;8.646;2023-04-07T08:32:42;10.17;;;7.77;;
10641;SDS011;5369;49.586;8.646;2023-04-07T08:35:09;12.50;;;8.60;;
10641;SDS011;5369;49.586;8.646;2023-04-07T08:37:36;9.23;;;7.23;;
10641;SDS011;5369;49.586;8.646;2023-04-07T08:40:02;10.27;;;8.60;;
10641;SDS011;5369;49.586;8.646;2023-04-07T08:42:29;10.47;;;8.60;;
10641;SDS011;5369;49.586;8.646;2023-04-07T08:44:56;10.37;;;8.43;;
10641;SDS011;5369;49.586;8.646;2023-04-07T08:47:24;11.17;;;8.60;;
10641;SDS011;5369;49.586;8.646;2023-04-07T08:49:54;10.00;;;7.97;;
10641;SDS011;5369;49.586;8.646;2023-04-07T08:52:22;10.23;;;8.10;;
10641;SDS011;5369;49.586;8.646;2023-04-07T08:54:50;10.63;;;8.33;;
10641;SDS011;5369;49.586;8.646;2023-04-07T08:57:17;11.00;;;8.43;;
10641;SDS011;5369;49.586;8.646;2023-04-07T08:59:43;10.83;;;8.20;;
10641;SDS011;5369;49.586;8.646;2023-04-07T09:02:13;9.77;;;8.07;;
10641;SDS011;5369;49.586;8.646;2023-04-07T09:04:39;11.10;;;8.83;;
10641;SDS011;5369;49.586;8.646;2023-04-07T09:07:06;10.37;;;9.17;;
10641;SDS011;5369;49.586;8.646;2023-04-07T09:09:32;9.63;;;8.60;;
10641;SDS011;5369;49.586;8.646;2023-04-07T09:11:59;10.53;;;8.30;;
10641;SDS011;5369;49.586;8.646;2023-04-07T09:14:26;8.13;;;7.30;;
10641;SDS011;5369;49.586;8.646;2023-04-07T09:16:53;10.00;;;7.53;;
10641;SDS011;5369;49.586;8.646;2023-04-07T09:19:20;8.90;;;8.00;;
10641;SDS011;5369;49.586;8.646;2023-04-07T09:24:19;10.40;;;8.53;;
10641;SDS011;5369;49.586;8.646;2023-04-07T09:26:46;12.37;;;8.70;;
10641;SDS011;5369;49.586;8.646;2023-04-07T09:29:14;10.60;;;8.57;;
10641;SDS011;5369;49.586;8.646;2023-04-07T09:31:46;13.20;;;8.30;;
10641;SDS011;5369;49.586;8.646;2023-04-07T09:34:23;11.40;;;8.50;;
10641;SDS011;5369;49.586;8.646;2023-04-07T09:36:50;12.40;;;9.40;;
10641;SDS011;5369;49.586;8.646;2023-04-07T09:39:16;10.40;;;8.87;;
10641;SDS011;5369;49.586;8.646;2023-04-07T09:41:43;9.50;;;8.10;;
10641;SDS011;5369;49.586;8.646;2023-04-07T09:44:09;9.10;;;8.10;;
10641;SDS011;5369;49.586;8.646;2023-04-07T09:46:47;11.53;;;9.23;;
10641;SDS011;5369;49.586;8.646;2023-04-07T09:49:13;10.50;;;8.03;;
10641;SDS011;5369;49.586;8.646;2023-04-07T09:51:53;8.83;;;7.43;;
10641;SDS011;5369;49.586;8.646;2023-04-07T09:54:32;8.73;;;7.50;;
10641;SDS011;5369;49.586;8.646;2023-04-07T09:56:59;8.00;;;6.70;;
10641;SDS011;5369;49.586;8.646;2023-04-07T09:59:26;8.37;;;6.30;;
10641;SDS011;5369;49.586;8.646;2023-04-07T10:01:53;7.00;;;5.40;;
10641;SDS011;5369;49.586;8.646;2023-04-07T10:04:19;6.97;;;5.87;;
10641;SDS011;5369;49.586;8.646;2023-04-07T10:06:46;7.50;;;6.03;;
10641;SDS011;5369;49.586;8.646;2023-04-07T10:09:12;7.80;;;5.63;;
10641;SDS011;5369;49.586;8.646;2023-04-07T10:11:39;7.87;;;5.80;;
10641;SDS011;5369;49.586;8.646;2023-04-07T10:14:06;6.63;;;5.93;;
10641;SDS011;5369;49.586;8.646;2023-04-07T10:16:36;7.87;;;6.40;;
10641;SDS011;5369;49.586;8.646;2023-04-07T10:19:02;8.47;;;6.27;;
10641;SDS011;5369;49.586;8.646;2023-04-07T10:21:29;6.47;;;5.87;;
10641;SDS011;5369;49.586;8.646;2023-04-07T10:24:03;7.47;;;6.00;;
10641;SDS011;5369;49.586;8.646;2023-04-07T10:26:32;7.73;;;5.70;;
10641;SDS011;5369;49.586;8.646;2023-04-07T10:29:01;6.57;;;5.60;;
10641;SDS011;5369;49.586;8.646;2023-04-07T10:31:29;5.70;;;5.00;;
10641;SDS011;5369;49.586;8.646;2023-04-07T10:33:56;6.93;;;5.43;;
10641;SDS011;5369;49.586;8.646;2023-04-07T10:36:22;6.37;;;5.47;;
10641;SDS011;5369;49.586;8.646;2023-04-07T10:41:34;6.97;;;5.07;;
10641;SDS011;5369;49.586;8.646;2023-04-07T10:44:01;6.73;;;6.03;;
10641;SDS011;5369;49.586;8.646;2023-04-07T10:49:13;8.57;;;7.43;;
10641;SDS011;5369;49.586;8.646;2023-04-07T10:51:41;10.50;;;8.83;;
10641;SDS011;5369;49.586;8.646;2023-04-07T10:54:16;9.20;;;8.30;;
10641;SDS011;5369;49.586;8.646;2023-04-07T10:59:29;9.87;;;7.90;;
10641;SDS011;5369;49.586;8.646;2023-04-07T11:04:41;11.37;;;8.43;;
10641;SDS011;5369;49.586;8.646;2023-04-07T11:07:08;9.50;;;8.37;;
10641;SDS011;5369;49.586;8.646;2023-04-07T11:09:34;8.97;;;8.07;;
10641;SDS011;5369;49.586;8.646;2023-04-07T11:12:00;7.90;;;7.10;;
10641;SDS011;5369;49.586;8.646;2023-04-07T11:14:27;8.27;;;7.20;;
10641;SDS011;5369;49.586;8.646;2023-04-07T11:16:54;8.10;;;7.30;;
10641;SDS011;5369;49.586;8.646;2023-04-07T11:19:20;9.70;;;7.63;;
10641;SDS011;5369;49.586;8.646;2023-04-07T11:21:47;8.10;;;7.30;;
10641;SDS011;5369;49.586;8.646;2023-04-07T11:24:32;7.80;;;7.00;;
10641;SDS011;5369;49.586;8.646;2023-04-07T11:26:58;8.03;;;6.63;;
10641;SDS011;5369;49.586;8.646;2023-04-07T11:29:28;8.03;;;7.00;;
10641;SDS011;5369;49.586;8.646;2023-04-07T11:31:58;7.50;;;6.13;;
10641;SDS011;5369;49.586;8.646;2023-04-07T11:34:31;6.40;;;5.80;;
10641;SDS011;5369;49.586;8.646;2023-04-07T11:36:58;7.00;;;5.93;;
10641;SDS011;5369;49.586;8.646;2023-04-07T11:39:43;5.90;;;5.40;;
10641;SDS011;5369;49.586;8.646;2023-04-07T11:42:12;6.40;;;5.50;;
10641;SDS011;5369;49.586;8.646;2023-04-07T11:44:44;6.43;;;5.83;;
10641;SDS011;5369;49.586;8.646;2023-04-07T11:47:10;6.43;;;5.83;;
10641;SDS011;5369;49.586;8.646;2023-04-07T11:49:43;7.37;;;6.07;;
10641;SDS011;5369;49.586;8.646;2023-04-07T11:52:10;6.30;;;5.27;;
10641;SDS011;5369;49.586;8.646;2023-04-07T11:54:43;5.90;;;5.30;;
10641;SDS011;5369;49.586;8.646;2023-04-07T11:57:11;7.07;;;5.20;;
10641;SDS011;5369;49.586;8.646;2023-04-07T11:59:38;5.23;;;4.73;;
10641;SDS011;5369;49.586;8.646;2023-04-07T12:02:04;5.63;;;5.07;;
10641;SDS011;5369;49.586;8.646;2023-04-07T12:04:32;5.90;;;5.30;;
10641;SDS011;5369;49.586;8.646;2023-04-07T12:07:07;5.53;;;4.93;;
10641;SDS011;5369;49.586;8.646;2023-04-07T12:09:38;6.27;;;5.17;;
10641;SDS011;5369;49.586;8.646;2023-04-07T12:12:05;5.30;;;4.70;;
10641;SDS011;5369;49.586;8.646;2023-04-07T12:14:32;5.07;;;4.57;;
10641;SDS011;5369;49.586;8.646;2023-04-07T12:16:58;5.03;;;4.50;;
10641;SDS011;5369;49.586;8.646;2023-04-07T12:19:28;5.07;;;4.63;;
10641;SDS011;5369;49.586;8.646;2023-04-07T12:21:55;4.40;;;4.00;;
10641;SDS011;5369;49.586;8.646;2023-04-07T12:24:21;4.37;;;3.97;;
10641;SDS011;5369;49.586;8.646;2023-04-07T12:26:48;4.20;;;3.90;;
10641;SDS011;5369;49.586;8.646;2023-04-07T12:29:15;4.00;;;3.60;;
10641;SDS011;5369;49.586;8.646;2023-04-07T12:31:42;4.37;;;4.03;;
10641;SDS011;5369;49.586;8.646;2023-04-07T12:34:09;4.53;;;4.13;;
10641;SDS011;5369;49.586;8.646;2023-04-07T12:36:35;5.03;;;4.53;;
10641;SDS011;5369;49.586;8.646;2023-04-07T12:39:01;3.43;;;3.13;;
10641;SDS011;5369;49.586;8.646;2023-04-07T12:41:28;3.83;;;3.47;;
10641;SDS011;5369;49.586;8.646;2023-04-07T12:43:54;3.33;;;3.03;;
10641;SDS011;5369;49.586;8.646;2023-04-07T12:46:20;4.10;;;3.67;;
10641;SDS011;5369;49.586;8.646;2023-04-07T12:48:46;5.10;;;4.60;;
10641;SDS011;5369;49.586;8.646;2023-04-07T12:51:13;5.67;;;5.17;;
10641;SDS011;5369;49.586;8.646;2023-04-07T12:53:40;5.57;;;5.07;;
10641;SDS011;5369;49.586;8.646;2023-04-07T12:56:06;5.43;;;4.93;;
10641;SDS011;5369;49.586;8.646;2023-04-07T12:58:32;5.37;;;4.87;;
10641;SDS011;5369;49.586;8.646;2023-04-07T13:00:59;5.70;;;5.20;;
10641;SDS011;5369;49.586;8.646;2023-04-07T13:03:25;5.53;;;5.03;;
10641;SDS011;5369;49.586;8.646;2023-04-07T13:05:51;6.30;;;5.70;;
10641;SDS011;5369;49.586;8.646;2023-04-07T13:08:19;6.10;;;5.50;;
10641;SDS011;5369;49.586;8.646;2023-04-07T13:10:46;6.00;;;5.20;;
10641;SDS011;5369;49.586;8.646;2023-04-07T13:13:17;5.33;;;4.83;;
10641;SDS011;5369;49.586;8.646;2023-04-07T13:15:43;4.63;;;4.23;;
10641;SDS011;5369;49.586;8.646;2023-04-07T13:18:09;4.87;;;4.40;;
10641;SDS011;5369;49.586;8.646;2023-04-07T13:20:35;4.70;;;4.30;;
10641;SDS011;5369;49.586;8.646;2023-04-07T13:23:02;4.60;;;4.07;;
10641;SDS011;5369;49.586;8.646;2023-04-07T13:25:28;4.83;;;4.40;;
10641;SDS011;5369;49.586;8.646;2023-04-07T13:27:54;5.20;;;4.70;;
10641;SDS011;5369;49.586;8.646;2023-04-07T13:30:20;5.50;;;5.00;;
10641;SDS011;5369;49.586;8.646;2023-04-07T13:32:46;5.33;;;4.87;;
10641;SDS011;5369;49.586;8.646;2023-04-07T13:35:16;4.80;;;4.30;;
10641;SDS011;5369;49.586;8.646;2023-04-07T13:37:43;4.60;;;4.07;;
10641;SDS011;5369;49.586;8.646;2023-04-07T13:40:09;4.30;;;3.90;;
10641;SDS011;5369;49.586;8.646;2023-04-07T13:42:37;4.03;;;3.73;;
10641;SDS011;5369;49.586;8.646;2023-04-07T13:45:03;3.60;;;3.30;;
10641;SDS011;5369;49.586;8.646;2023-04-07T13:47:29;4.10;;;3.60;;
10641;SDS011;5369;49.586;8.646;2023-04-07T13:49:58;3.90;;;3.50;;
10641;SDS011;5369;49.586;8.646;2023-04-07T13:52:25;3.07;;;2.87;;
10641;SDS011;5369;49.586;8.646;2023-04-07T13:54:52;3.30;;;3.03;;
10641;SDS011;5369;49.586;8.646;2023-04-07T13:57:18;3.23;;;2.90;;
10641;SDS011;5369;49.586;8.646;2023-04-07T13:59:45;3.30;;;3.00;;
10641;SDS011;5369;49.586;8.646;2023-04-07T14:02:12;3.17;;;2.97;;
10641;SDS011;5369;49.586;8.646;2023-04-07T14:04:38;4.93;;;2.97;;
10641;SDS011;5369;49.586;8.646;2023-04-07T14:07:04;3.00;;;2.70;;
10641;SDS011;5369;49.586;8.646;2023-04-07T14:09:31;3.20;;;2.90;;
10641;SDS011;5369;49.586;8.646;2023-04-07T14:11:57;2.90;;;2.70;;
10641;SDS011;5369;49.586;8.646;2023-04-07T14:14:23;2.77;;;2.57;;
10641;SDS011;5369;49.586;8.646;2023-04-07T14:16:49;2.70;;;2.50;;
10641;SDS011;5369;49.586;8.646;2023-04-07T14:19:19;3.00;;;2.80;;
10641;SDS011;5369;49.586;8.646;2023-04-07T14:21:51;2.90;;;2.70;;
10641;SDS011;5369;49.586;8.646;2023-04-07T14:24:17;3.27;;;2.97;;
10641;SDS011;5369;49.586;8.646;2023-04-07T14:26:44;3.33;;;3.07;;
10641;SDS011;5369;49.586;8.646;2023-04-07T14:29:13;3.00;;;2.80;;
10641;SDS011;5369;49.586;8.646;2023-04-07T14:31:39;2.70;;;2.50;;
10641;SDS011;5369;49.586;8.646;2023-04-07T14:34:05;2.30;;;2.10;;
10641;SDS011;5369;49.586;8.646;2023-04-07T14:36:32;2.30;;;1.90;;
10641;SDS011;5369;49.586;8.646;2023-04-07T14:38:58;2.70;;;2.50;;
10641;SDS011;5369;49.586;8.646;2023-04-07T14:41:25;1.80;;;1.70;;
10641;SDS011;5369;49.586;8.646;2023-04-07T14:43:51;1.80;;;1.70;;
10641;SDS011;5369;49.586;8.646;2023-04-07T14:46:21;1.80;;;1.53;;
10641;SDS011;5369;49.586;8.646;2023-04-07T14:48:48;2.60;;;2.00;;
10641;SDS011;5369;49.586;8.646;2023-04-07T14:51:17;2.67;;;1.90;;
10641;SDS011;5369;49.586;8.646;2023-04-07T14:53:44;2.23;;;2.03;;
10641;SDS011;5369;49.586;8.646;2023-04-07T14:56:10;2.40;;;2.20;;
10641;SDS011;5369;49.586;8.646;2023-04-07T14:58:37;2.57;;;2.37;;
10641;SDS011;5369;49.586;8.646;2023-04-07T15:01:04;2.70;;;2.50;;
10641;SDS011;5369;49.586;8.646;2023-04-07T15:03:31;2.87;;;2.67;;
10641;SDS011;5369;49.586;8.646;2023-04-07T15:05:58;3.07;;;2.77;;
10641;SDS011;5369;49.586;8.646;2023-04-07T15:08:24;3.03;;;2.83;;
10641;SDS011;5369;49.586;8.646;2023-04-07T15:10:51;3.00;;;2.80;;
10641;SDS011;5369;49.586;8.646;2023-04-07T15:13:17;2.97;;;2.77;;
10641;SDS011;5369;49.586;8.646;2023-04-07T15:15:43;3.40;;;3.10;;